Kingsgate, Washington
Current Conditions -  °F | °C
As of 5:53 AM on Saturday 22 Nov 2014 (Local Time) from KBFI Reporting Station
Overcast Overcast  
Wind Chill: 45°   Ceiling: 8500
Heat Index: 49°   Visibility: 10mi
Dew Point: 40°   Wind: 9mph
Humidity: 71%   Direction: 170°S
Pressure: 29.68"   Gusts: NA
Location:  47.7179°N, 122.204°W
Report Text: KBFI 221353Z 17008KT 10SM BKN085 OVC120 09/04 A2968 RMK AO2 SLP050 T00940044
Loading
Personal Weather Stations






























Interactive Weather Map New forecast layout! Learn more

10-Day Weather Forecast

Advertisements
Track Severe Weather on mobile